South Lunenburg, Vermont
Current Conditions -  °F | °C
As of 7:13 PM on Friday 19 Dec 2014 (Local Time) from KHIE Reporting Station
Overcast Overcast  
Wind Chill: 15°   Ceiling: 1400
Heat Index: 23°   Visibility: 10mi
Dew Point: 18°   Wind: 7mph
Humidity: 81%   Direction: 360°N
Pressure: 30.1"   Gusts: NA
Location:  44.4777°N, 71.7112°W
Report Text: KHIE 200013Z AUTO 36006KT 10SM OVC014 M05/M08 A3010 RMK AO2 T10501078
Loading
Personal Weather Stations






























Interactive Weather Map New forecast layout! Learn more

10-Day Weather Forecast

Advertisements
Track Severe Weather on mobile